createdAt,value
2023-05-20T00:00:53.407Z,102180.53
2023-05-20T00:03:21.023Z,102183.84
2023-05-20T00:05:49.020Z,102187.66
2023-05-20T00:08:19.459Z,102186.88
2023-05-20T00:10:48.044Z,102185.41
2023-05-20T00:13:15.380Z,102182.00
2023-05-20T00:15:43.190Z,102183.91
2023-05-20T00:18:10.618Z,102183.97
2023-05-20T00:20:38.013Z,102175.41
2023-05-20T00:23:05.400Z,102172.84
2023-05-20T00:25:33.172Z,102178.94
2023-05-20T00:28:00.721Z,102180.88
2023-05-20T00:30:28.305Z,102181.78
2023-05-20T00:32:55.719Z,102179.34
2023-05-20T00:35:23.334Z,102181.25
2023-05-20T00:37:50.644Z,102175.41
2023-05-20T00:40:18.110Z,102179.84
2023-05-20T00:42:45.632Z,102178.28
2023-05-20T00:45:12.972Z,102176.56
2023-05-20T00:47:43.026Z,102170.66
2023-05-20T00:50:11.782Z,102174.19
2023-05-20T00:52:41.640Z,102174.25
2023-05-20T00:55:11.289Z,102164.63
2023-05-20T00:57:38.804Z,102167.50
2023-05-20T01:00:08.326Z,102158.06
2023-05-20T01:02:35.807Z,102166.84
2023-05-20T01:05:03.357Z,102159.16
2023-05-20T01:07:31.429Z,102171.56
2023-05-20T01:09:59.850Z,102168.06
2023-05-20T01:12:48.717Z,102161.19
2023-05-20T01:15:18.323Z,102166.69
2023-05-20T01:17:52.698Z,102166.91
2023-05-20T01:20:21.732Z,102161.78
2023-05-20T01:22:57.653Z,102158.41
2023-05-20T01:25:26.454Z,102167.22
2023-05-20T01:27:58.003Z,102163.78
2023-05-20T01:30:41.494Z,102157.00
2023-05-20T01:33:13.469Z,102168.38
2023-05-20T01:35:43.040Z,102157.00
2023-05-20T01:38:11.993Z,102154.50
2023-05-20T01:40:41.926Z,102147.59
2023-05-20T01:43:10.356Z,102148.63
2023-05-20T01:45:39.871Z,102138.19
2023-05-20T01:48:08.268Z,102141.06
2023-05-20T01:50:35.614Z,102143.75
2023-05-20T01:53:03.167Z,102143.75
2023-05-20T01:55:31.811Z,102143.88
2023-05-20T01:58:00.938Z,102143.06
2023-05-20T02:00:28.511Z,102143.13
2023-05-20T02:02:56.367Z,102143.22
2023-05-20T02:05:24.885Z,102137.13
2023-05-20T02:07:52.411Z,102142.56
2023-05-20T02:10:21.389Z,102142.63
2023-05-20T02:12:49.413Z,102140.84
2023-05-20T02:15:16.805Z,102140.16
2023-05-20T02:17:44.145Z,102133.19
2023-05-20T02:20:14.075Z,102132.34
2023-05-20T02:22:41.694Z,102133.31
2023-05-20T02:25:11.260Z,102128.06
2023-05-20T02:27:39.918Z,102137.47
2023-05-20T02:30:09.145Z,102129.78
2023-05-20T02:32:36.874Z,102122.81
2023-05-20T02:35:05.066Z,102132.47
2023-05-20T02:37:32.709Z,102127.25
2023-05-20T02:39:59.992Z,102130.84
2023-05-20T02:42:27.296Z,102124.88
2023-05-20T02:44:58.460Z,102136.28
2023-05-20T02:47:27.080Z,102132.06
2023-05-20T02:49:54.439Z,102126.00
2023-05-20T02:52:22.119Z,102125.22
2023-05-20T02:54:49.553Z,102127.00
2023-05-20T02:57:16.941Z,102125.31
2023-05-20T02:59:44.301Z,102116.72
2023-05-20T03:02:11.622Z,102118.50
2023-05-20T03:04:41.131Z,102119.44
2023-05-20T03:07:09.056Z,102128.13
2023-05-20T03:09:36.679Z,102123.75
2023-05-20T03:12:04.254Z,102126.34
2023-05-20T03:14:31.576Z,102121.19
2023-05-20T03:17:00.104Z,102122.13
2023-05-20T03:19:28.466Z,102117.94
2023-05-20T03:21:55.956Z,102120.72
2023-05-20T03:24:24.706Z,102115.66
2023-05-20T03:26:52.030Z,102107.88
2023-05-20T03:29:19.942Z,102125.56
2023-05-20T03:31:47.312Z,102128.19
2023-05-20T03:34:14.765Z,102125.69
2023-05-20T03:36:42.904Z,102130.22
2023-05-20T03:39:10.242Z,102133.66
2023-05-20T03:41:38.017Z,102131.81
2023-05-20T03:44:05.577Z,102131.88
2023-05-20T03:46:34.354Z,102124.22
2023-05-20T03:49:02.516Z,102132.03
2023-05-20T03:51:30.311Z,102129.47
2023-05-20T03:54:04.010Z,102124.38
2023-05-20T03:56:31.680Z,102130.63
2023-05-20T03:58:59.080Z,102122.03
2023-05-20T04:01:26.384Z,102129.09
2023-05-20T04:03:53.886Z,102128.16
2023-05-20T04:06:22.557Z,102123.03
2023-05-20T04:08:51.244Z,102118.66
2023-05-20T04:11:21.735Z,102124.84
2023-05-20T04:13:49.075Z,102118.81
2023-05-20T04:16:16.778Z,102119.66
2023-05-20T04:18:46.118Z,102123.03
2023-05-20T04:21:14.157Z,102122.91
2023-05-20T04:23:43.476Z,102124.63
2023-05-20T04:26:10.985Z,102123.84
2023-05-20T04:28:38.952Z,102130.69
2023-05-20T04:31:06.707Z,102120.13
2023-05-20T04:33:39.479Z,102123.47
2023-05-20T04:36:15.338Z,102124.22
2023-05-20T04:38:44.526Z,102125.84
2023-05-20T04:41:13.154Z,102118.50
2023-05-20T04:43:40.603Z,102130.28
2023-05-20T04:46:08.889Z,102131.53
2023-05-20T04:48:37.190Z,102130.22
2023-05-20T04:51:04.881Z,102129.00
2023-05-20T04:53:33.946Z,102123.75
2023-05-20T04:56:01.877Z,102129.72
2023-05-20T04:58:31.728Z,102127.03
2023-05-20T05:00:59.813Z,102135.66
2023-05-20T05:03:27.240Z,102124.19
2023-05-20T05:05:59.134Z,102131.72
2023-05-20T05:08:27.135Z,102125.56
2023-05-20T05:10:54.766Z,102121.88
2023-05-20T05:13:22.107Z,102120.84
2023-05-20T05:15:58.540Z,102116.31
2023-05-20T05:18:27.148Z,102110.00
2023-05-20T05:21:06.790Z,102116.84
2023-05-20T05:23:35.716Z,102112.16
2023-05-20T05:26:03.506Z,102104.88
2023-05-20T05:28:31.007Z,102102.84
2023-05-20T05:30:59.023Z,102109.59
2023-05-20T05:33:26.992Z,102110.44
2023-05-20T05:35:58.942Z,102113.00
2023-05-20T05:38:26.490Z,102114.56
2023-05-20T05:40:54.018Z,102113.44
2023-05-20T05:43:21.853Z,102113.19
2023-05-20T05:45:49.832Z,102129.44
2023-05-20T05:48:17.258Z,102117.09
2023-05-20T05:50:46.721Z,102117.59
2023-05-20T05:53:16.969Z,102114.78
2023-05-20T05:55:47.949Z,102103.16
2023-05-20T05:58:16.420Z,102098.38
2023-05-20T06:00:44.018Z,102095.56
2023-05-20T06:03:11.517Z,102102.25
2023-05-20T06:05:38.863Z,102108.25
2023-05-20T06:08:06.326Z,102100.84
2023-05-20T06:10:35.862Z,102109.00
2023-05-20T06:13:04.182Z,102104.38
2023-05-20T06:15:32.415Z,102104.25
2023-05-20T06:18:00.017Z,102108.34
2023-05-20T06:20:28.355Z,102105.59
2023-05-20T06:22:55.724Z,102102.66
2023-05-20T06:25:26.094Z,102100.63
2023-05-20T06:27:53.411Z,102094.63
2023-05-20T06:30:22.204Z,102099.69
2023-05-20T06:32:49.636Z,102094.13
2023-05-20T06:35:18.402Z,102092.88
2023-05-20T06:37:46.249Z,102080.25
2023-05-20T06:40:15.115Z,102077.03
2023-05-20T06:42:42.452Z,102082.00
2023-05-20T06:45:10.528Z,102073.31
2023-05-20T06:47:42.851Z,102061.56
2023-05-20T06:50:11.560Z,102064.31
2023-05-20T06:52:39.179Z,102064.06
2023-05-20T06:55:07.973Z,102052.28
2023-05-20T06:57:37.130Z,102068.63
2023-05-20T07:00:06.425Z,102065.59
2023-05-20T07:02:38.251Z,102066.16
2023-05-20T07:05:08.076Z,102064.16
2023-05-20T07:07:36.386Z,102056.56
2023-05-20T07:10:07.412Z,102061.75
2023-05-20T07:12:36.798Z,102056.47
2023-05-20T07:15:06.950Z,102057.84
2023-05-20T07:17:35.000Z,102060.66
2023-05-20T07:20:04.363Z,102060.81
2023-05-20T07:22:33.520Z,102055.59
2023-05-20T07:25:15.159Z,102047.97
2023-05-20T07:27:42.501Z,102050.19
2023-05-20T07:30:10.505Z,102060.41
2023-05-20T07:32:41.097Z,102048.63
2023-05-20T07:35:09.740Z,102043.63
2023-05-20T07:37:37.069Z,102041.47
2023-05-20T07:40:05.844Z,102050.25
2023-05-20T07:42:34.335Z,102045.44
2023-05-20T07:45:03.421Z,102042.50
2023-05-20T07:47:33.197Z,102037.56
2023-05-20T07:50:01.045Z,102035.47
2023-05-20T07:52:30.977Z,102028.56
2023-05-20T07:55:01.083Z,102031.63
2023-05-20T07:57:28.416Z,102031.63
2023-05-20T07:59:57.455Z,102029.06
2023-05-20T08:02:24.990Z,102030.69
2023-05-20T08:04:53.147Z,102032.06
2023-05-20T08:07:21.213Z,102027.72
2023-05-20T08:09:53.305Z,102036.13
2023-05-20T08:12:21.892Z,102020.25
2023-05-20T08:14:50.274Z,102026.06
2023-05-20T08:17:18.970Z,102018.13
2023-05-20T08:19:46.470Z,102017.38
2023-05-20T08:22:14.845Z,102018.22
2023-05-20T08:24:42.298Z,102027.69
2023-05-20T08:27:10.582Z,102020.38
2023-05-20T08:29:41.291Z,102013.94
2023-05-20T08:32:09.665Z,102016.69
2023-05-20T08:34:37.134Z,102012.69
2023-05-20T08:37:05.342Z,102010.81
2023-05-20T08:39:32.680Z,102012.66
2023-05-20T08:42:00.331Z,102008.53
2023-05-20T08:44:30.109Z,102011.09
2023-05-20T08:46:58.906Z,101995.75
2023-05-20T08:49:26.706Z,101995.31
2023-05-20T08:51:54.043Z,101994.81
2023-05-20T08:54:24.374Z,101999.25
2023-05-20T08:56:55.921Z,102001.88
2023-05-20T08:59:23.706Z,102004.22
2023-05-20T09:01:51.076Z,101993.09
2023-05-20T09:04:19.473Z,101992.97
2023-05-20T09:06:49.399Z,102003.41
2023-05-20T09:09:17.094Z,101999.97
2023-05-20T09:11:47.394Z,101981.78
2023-05-20T09:14:15.423Z,101989.78
2023-05-20T09:16:43.312Z,101992.31
2023-05-20T09:19:11.576Z,101994.22
2023-05-20T09:21:42.627Z,101990.63
2023-05-20T09:24:09.922Z,101985.22
2023-05-20T09:26:37.276Z,101971.56
2023-05-20T09:29:05.158Z,101974.38
2023-05-20T09:31:34.515Z,101973.88
2023-05-20T09:34:02.873Z,101964.34
2023-05-20T09:36:34.402Z,101975.06
2023-05-20T09:39:13.118Z,101970.88
2023-05-20T09:42:12.944Z,101972.47
2023-05-20T09:44:42.902Z,101981.41
2023-05-20T09:47:11.107Z,101965.09
2023-05-20T09:49:42.681Z,101963.75
2023-05-20T09:52:13.068Z,101979.94
2023-05-20T09:54:44.885Z,101969.66
2023-05-20T09:57:14.046Z,101976.97
2023-05-20T09:59:44.195Z,101973.41
2023-05-20T10:02:13.917Z,101971.16
2023-05-20T10:04:50.419Z,101966.28
2023-05-20T10:07:42.421Z,101971.78
2023-05-20T10:11:13.119Z,101959.97
2023-05-20T10:13:58.334Z,101959.28
2023-05-20T10:17:10.318Z,101958.72
2023-05-20T10:19:39.871Z,101945.31
2023-05-20T10:22:13.909Z,101938.03
2023-05-20T10:24:44.709Z,101948.72
2023-05-20T10:27:15.750Z,101958.00
2023-05-20T10:29:53.393Z,101946.44
2023-05-20T10:32:57.529Z,101936.84
2023-05-20T10:35:32.230Z,101928.13
2023-05-20T10:38:13.043Z,101923.78
2023-05-20T10:40:41.532Z,101934.59
2023-05-20T10:43:26.014Z,101915.22
2023-05-20T10:45:57.531Z,101915.06
2023-05-20T10:48:34.587Z,101923.19
2023-05-20T10:51:06.501Z,101920.66
2023-05-20T10:53:45.700Z,101915.00
2023-05-20T10:56:27.457Z,101921.91
2023-05-20T10:58:58.453Z,101913.19
2023-05-20T11:01:37.058Z,101916.56
2023-05-20T11:04:08.539Z,101919.34
2023-05-20T11:06:39.655Z,101912.13
2023-05-20T11:09:20.744Z,101913.03
2023-05-20T11:11:58.388Z,101900.03
2023-05-20T11:14:33.139Z,101903.28
2023-05-20T11:17:06.057Z,101893.91
2023-05-20T11:19:50.213Z,101906.53
2023-05-20T11:22:17.700Z,101898.63
2023-05-20T11:24:47.544Z,101897.41
2023-05-20T11:27:18.146Z,101895.94
2023-05-20T11:29:45.641Z,101900.72
2023-05-20T11:32:13.120Z,101898.50
2023-05-20T11:34:41.139Z,101883.09
2023-05-20T11:37:11.121Z,101895.34
2023-05-20T11:39:39.759Z,101897.19
2023-05-20T11:42:08.086Z,101893.19
2023-05-20T11:44:35.633Z,101886.16
2023-05-20T11:47:03.824Z,101885.28
2023-05-20T11:49:40.269Z,101891.63
2023-05-20T11:52:11.179Z,101886.22
2023-05-20T11:54:39.741Z,101886.66
2023-05-20T11:57:07.845Z,101875.38
2023-05-20T11:59:35.608Z,101865.94
2023-05-20T12:02:03.076Z,101867.91
2023-05-20T12:04:30.368Z,101872.28
2023-05-20T12:06:58.450Z,101869.19
2023-05-20T12:09:26.112Z,101865.22
2023-05-20T12:11:55.886Z,101868.56
2023-05-20T12:14:23.421Z,101865.19
2023-05-20T12:16:52.343Z,101855.72
2023-05-20T12:19:19.921Z,101860.59
2023-05-20T12:21:47.363Z,101850.56
2023-05-20T12:24:14.720Z,101854.03
2023-05-20T12:26:42.028Z,101842.03
2023-05-20T12:29:09.430Z,101845.84
2023-05-20T12:31:36.887Z,101840.31
2023-05-20T12:34:04.596Z,101846.66
2023-05-20T12:36:32.376Z,101839.44
2023-05-20T12:38:59.673Z,101846.19
2023-05-20T12:41:27.064Z,101848.59
2023-05-20T12:43:54.607Z,101842.16
2023-05-20T12:46:22.130Z,101840.50
2023-05-20T12:48:49.672Z,101858.06
2023-05-20T12:51:19.279Z,101843.75
2023-05-20T12:53:48.772Z,101838.41
2023-05-20T12:56:16.388Z,101844.28
2023-05-20T12:58:43.695Z,101836.97
2023-05-20T13:01:11.104Z,101842.84
2023-05-20T13:03:38.627Z,101850.88
2023-05-20T13:06:06.964Z,101861.97
2023-05-20T13:08:36.606Z,101844.59
2023-05-20T13:11:05.613Z,101843.72
2023-05-20T13:13:33.051Z,101841.13
2023-05-20T13:16:01.808Z,101844.78
2023-05-20T13:18:29.067Z,101847.88
2023-05-20T13:20:56.719Z,101845.97
2023-05-20T13:23:24.814Z,101837.31
2023-05-20T13:25:52.341Z,101844.50
2023-05-20T13:28:20.833Z,101834.50
2023-05-20T13:30:50.254Z,101835.16
2023-05-20T13:33:17.579Z,101837.50
2023-05-20T13:35:44.902Z,101841.84
2023-05-20T13:38:12.198Z,101840.69
2023-05-20T13:40:39.733Z,101831.22
2023-05-20T13:43:07.293Z,101831.84
2023-05-20T13:45:34.542Z,101820.94
2023-05-20T13:48:02.112Z,101819.16
2023-05-20T13:50:29.640Z,101813.28
2023-05-20T13:52:57.346Z,101817.94
2023-05-20T13:55:25.173Z,101797.97
2023-05-20T13:57:56.648Z,101806.09
2023-05-20T14:00:23.967Z,101797.19
2023-05-20T14:02:51.402Z,101799.94
2023-05-20T14:05:18.947Z,101792.75
2023-05-20T14:07:46.222Z,101795.56
2023-05-20T14:10:13.604Z,101790.22
2023-05-20T14:12:42.966Z,101793.16
2023-05-20T14:15:11.450Z,101784.88
2023-05-20T14:17:38.792Z,101774.59
2023-05-20T14:20:09.770Z,101778.38
2023-05-20T14:22:37.660Z,101785.06
2023-05-20T14:25:09.513Z,101781.31
2023-05-20T14:27:40.035Z,101773.53
2023-05-20T14:30:08.945Z,101776.47
2023-05-20T14:32:36.400Z,101765.66
2023-05-20T14:35:05.014Z,101768.91
2023-05-20T14:37:32.965Z,101764.81
2023-05-20T14:40:01.939Z,101767.16
2023-05-20T14:42:29.299Z,101756.63
2023-05-20T14:44:56.620Z,101757.19
2023-05-20T14:47:23.985Z,101752.72
2023-05-20T14:49:51.873Z,101762.13
2023-05-20T14:52:19.683Z,101751.72
2023-05-20T14:54:47.063Z,101753.69
2023-05-20T14:57:16.253Z,101743.56
2023-05-20T14:59:45.097Z,101747.06
2023-05-20T15:02:15.434Z,101746.09
2023-05-20T15:04:45.112Z,101748.22
2023-05-20T15:07:12.555Z,101736.59
2023-05-20T15:09:40.829Z,101727.03
2023-05-20T15:12:10.996Z,101735.84
2023-05-20T15:14:38.380Z,101733.06
2023-05-20T15:17:11.768Z,101729.28
2023-05-20T15:19:41.837Z,101727.63
2023-05-20T15:22:09.426Z,101721.75
2023-05-20T15:24:37.069Z,101728.06
2023-05-20T15:27:05.299Z,101716.69
2023-05-20T15:29:32.667Z,101724.44
2023-05-20T15:32:01.126Z,101726.22
2023-05-20T15:34:28.472Z,101717.50
2023-05-20T15:36:56.022Z,101723.41
2023-05-20T15:39:23.427Z,101711.78
2023-05-20T15:41:52.103Z,101717.19
2023-05-20T15:44:19.636Z,101719.69
2023-05-20T15:46:47.057Z,101711.00
2023-05-20T15:49:14.420Z,101708.91
2023-05-20T15:51:52.292Z,101711.97
2023-05-20T15:54:27.048Z,101703.69
2023-05-20T15:56:54.693Z,101708.47
2023-05-20T15:59:22.030Z,101702.59
2023-05-20T16:01:49.621Z,101697.69
2023-05-20T16:04:19.301Z,101698.88
2023-05-20T16:06:47.506Z,101693.78
2023-05-20T16:09:14.826Z,101692.47
2023-05-20T16:11:42.430Z,101689.38
2023-05-20T16:14:09.912Z,101684.03
2023-05-20T16:16:37.281Z,101674.91
2023-05-20T16:19:04.746Z,101679.47
2023-05-20T16:21:32.046Z,101682.84
2023-05-20T16:24:00.770Z,101681.75
2023-05-20T16:26:31.501Z,101684.19
2023-05-20T16:28:58.872Z,101684.53
2023-05-20T16:31:26.710Z,101688.66
2023-05-20T16:33:54.177Z,101673.72
2023-05-20T16:36:21.663Z,101682.84
2023-05-20T16:38:50.579Z,101676.78
2023-05-20T16:41:18.063Z,101671.31
2023-05-20T16:43:45.419Z,101673.34
2023-05-20T16:46:14.603Z,101682.19
2023-05-20T16:48:42.902Z,101677.69
2023-05-20T16:51:11.953Z,101678.47
2023-05-20T16:53:39.252Z,101683.75
2023-05-20T16:56:08.077Z,101679.06
2023-05-20T16:58:35.658Z,101684.44
2023-05-20T17:01:04.256Z,101688.94
2023-05-20T17:03:32.506Z,101688.72
2023-05-20T17:05:59.815Z,101693.91
2023-05-20T17:08:27.283Z,101693.22
2023-05-20T17:10:54.603Z,101694.75
2023-05-20T17:13:22.493Z,101687.75
2023-05-20T17:15:49.771Z,101689.31
2023-05-20T17:18:17.244Z,101688.34
2023-05-20T17:20:44.648Z,101689.28
2023-05-20T17:23:11.987Z,101701.16
2023-05-20T17:25:39.273Z,101707.81
2023-05-20T17:28:07.950Z,101710.63
2023-05-20T17:30:37.039Z,101711.63
2023-05-20T17:33:04.583Z,101719.38
2023-05-20T17:35:32.005Z,101722.41
2023-05-20T17:37:59.335Z,101722.53
2023-05-20T17:40:26.622Z,101721.78
2023-05-20T17:42:54.135Z,101726.84
2023-05-20T17:45:21.673Z,101723.34
2023-05-20T17:47:49.158Z,101732.16
2023-05-20T17:50:16.989Z,101723.22
2023-05-20T17:52:44.259Z,101735.94
2023-05-20T17:55:12.944Z,101732.91
2023-05-20T17:57:40.726Z,101737.00
2023-05-20T18:00:09.336Z,101733.63
2023-05-20T18:02:38.404Z,101737.47
2023-05-20T18:05:07.710Z,101734.59
2023-05-20T18:07:36.140Z,101735.41
2023-05-20T18:10:05.584Z,101737.13
2023-05-20T18:12:32.952Z,101738.31
2023-05-20T18:15:00.462Z,101740.59
2023-05-20T18:17:28.792Z,101742.03
2023-05-20T18:19:56.170Z,101735.84
2023-05-20T18:22:23.453Z,101734.00
2023-05-20T18:24:50.779Z,101729.63
2023-05-20T18:27:18.203Z,101727.78
2023-05-20T18:29:45.587Z,101724.03
2023-05-20T18:32:12.887Z,101730.00
2023-05-20T18:34:40.180Z,101725.16
2023-05-20T18:37:08.783Z,101724.72
2023-05-20T18:39:36.899Z,101729.53
2023-05-20T18:42:04.631Z,101721.19
2023-05-20T18:44:32.098Z,101725.03
2023-05-20T18:46:59.482Z,101730.88
2023-05-20T18:49:28.308Z,101727.63
2023-05-20T18:51:56.074Z,101738.47
2023-05-20T18:54:27.530Z,101740.72
2023-05-20T18:56:59.093Z,101735.75
2023-05-20T18:59:27.445Z,101737.75
2023-05-20T19:01:54.752Z,101724.94
2023-05-20T19:04:23.441Z,101729.72
2023-05-20T19:06:53.334Z,101732.81
2023-05-20T19:09:22.194Z,101733.03
2023-05-20T19:11:55.943Z,101742.16
2023-05-20T19:14:24.063Z,101732.06
2023-05-20T19:16:52.593Z,101730.81
2023-05-20T19:19:20.043Z,101727.00
2023-05-20T19:21:47.375Z,101744.72
2023-05-20T19:24:14.844Z,101743.44
2023-05-20T19:26:42.261Z,101743.84
2023-05-20T19:29:10.717Z,101744.28
2023-05-20T19:31:41.558Z,101753.28
2023-05-20T19:34:10.312Z,101757.22
2023-05-20T19:36:38.693Z,101758.47
2023-05-20T19:39:06.753Z,101755.19
2023-05-20T19:41:34.128Z,101758.25
2023-05-20T19:44:03.603Z,101765.63
2023-05-20T19:46:31.618Z,101758.34
2023-05-20T19:49:05.071Z,101769.03
2023-05-20T19:51:33.455Z,101763.06
2023-05-20T19:54:01.084Z,101766.91
2023-05-20T19:56:28.788Z,101773.88
2023-05-20T19:58:57.581Z,101760.00
2023-05-20T20:01:24.858Z,101765.19
2023-05-20T20:03:52.231Z,101763.69
2023-05-20T20:06:22.051Z,101756.81
2023-05-20T20:08:49.868Z,101752.47
2023-05-20T20:11:17.193Z,101757.56
2023-05-20T20:13:45.599Z,101752.03
2023-05-20T20:16:13.186Z,101760.03
2023-05-20T20:18:40.657Z,101760.97
2023-05-20T20:21:09.241Z,101754.06
2023-05-20T20:23:37.965Z,101762.13
2023-05-20T20:26:06.520Z,101753.75
2023-05-20T20:28:34.180Z,101751.19
2023-05-20T20:31:03.988Z,101757.44
2023-05-20T20:33:31.899Z,101759.53
2023-05-20T20:36:01.062Z,101756.88
2023-05-20T20:38:28.577Z,101750.28
2023-05-20T20:40:55.898Z,101761.75
2023-05-20T20:43:23.646Z,101758.44
2023-05-20T20:45:53.218Z,101752.50
2023-05-20T20:48:26.605Z,101747.28
2023-05-20T20:50:54.296Z,101757.88
2023-05-20T20:53:21.798Z,101756.28
2023-05-20T20:55:51.367Z,101757.44
2023-05-20T20:58:19.064Z,101762.53
2023-05-20T21:00:48.752Z,101760.81
2023-05-20T21:03:16.474Z,101751.56
2023-05-20T21:05:44.481Z,101756.66
2023-05-20T21:08:13.163Z,101763.13
2023-05-20T21:10:40.647Z,101758.66
2023-05-20T21:13:08.081Z,101747.63
2023-05-20T21:15:35.734Z,101753.97
2023-05-20T21:18:03.584Z,101754.25
2023-05-20T21:20:32.037Z,101748.31
2023-05-20T21:22:59.894Z,101745.00
2023-05-20T21:25:27.207Z,101743.72
2023-05-20T21:27:55.539Z,101746.63
2023-05-20T21:30:24.117Z,101733.03
2023-05-20T21:32:51.452Z,101732.47
2023-05-20T21:35:18.827Z,101726.75
2023-05-20T21:37:46.130Z,101728.03
2023-05-20T21:40:14.871Z,101720.66
2023-05-20T21:42:42.167Z,101720.19
2023-05-20T21:45:10.670Z,101710.19
2023-05-20T21:47:38.062Z,101720.09
2023-05-20T21:50:07.205Z,101720.56
2023-05-20T21:52:34.504Z,101715.56
2023-05-20T21:55:02.297Z,101708.94
2023-05-20T21:57:29.536Z,101719.88
2023-05-20T21:59:56.805Z,101710.03
2023-05-20T22:02:25.417Z,101717.84
2023-05-20T22:04:52.767Z,101712.94
2023-05-20T22:07:20.075Z,101711.59
2023-05-20T22:09:47.392Z,101720.66
2023-05-20T22:12:15.483Z,101711.28
2023-05-20T22:14:42.902Z,101701.94
2023-05-20T22:17:10.548Z,101712.66
2023-05-20T22:19:37.866Z,101708.69
2023-05-20T22:22:05.374Z,101701.81
2023-05-20T22:24:32.672Z,101699.44
2023-05-20T22:27:01.713Z,101703.16
2023-05-20T22:29:31.533Z,101697.19
2023-05-20T22:31:59.530Z,101694.81
2023-05-20T22:34:26.926Z,101700.09
2023-05-20T22:36:55.467Z,101698.69
2023-05-20T22:39:23.526Z,101708.09
2023-05-20T22:41:50.906Z,101709.97
2023-05-20T22:44:18.557Z,101702.31
2023-05-20T22:46:46.145Z,101710.31
2023-05-20T22:49:13.435Z,101702.69
2023-05-20T22:51:41.865Z,101697.56
2023-05-20T22:54:09.703Z,101694.28
2023-05-20T22:56:37.239Z,101693.56
2023-05-20T22:59:04.849Z,101684.91
2023-05-20T23:01:32.650Z,101680.72
2023-05-20T23:04:01.068Z,101672.16
2023-05-20T23:06:28.393Z,101676.84
2023-05-20T23:08:55.850Z,101678.59
2023-05-20T23:11:23.873Z,101673.41
2023-05-20T23:13:51.461Z,101671.66
2023-05-20T23:16:18.736Z,101672.66
2023-05-20T23:18:47.507Z,101669.09
2023-05-20T23:21:14.816Z,101663.91
2023-05-20T23:23:42.132Z,101659.75
2023-05-20T23:26:09.478Z,101651.34
2023-05-20T23:28:40.095Z,101663.63
2023-05-20T23:31:09.334Z,101661.88
2023-05-20T23:33:36.768Z,101655.06
2023-05-20T23:36:04.572Z,101657.78
2023-05-20T23:38:32.083Z,101651.06
2023-05-20T23:40:59.304Z,101648.50
2023-05-20T23:43:26.607Z,101649.47
2023-05-20T23:45:54.213Z,101635.84
2023-05-20T23:48:21.490Z,101641.97
2023-05-20T23:50:49.103Z,101649.72
2023-05-20T23:53:17.064Z,101646.38
2023-05-20T23:55:45.216Z,101646.63
2023-05-20T23:58:12.661Z,101642.41
